sensor_id;sensor_type;location;lat;lon;timestamp;pressure;altitude;pressure_sealevel;temperature;humidity
20987;BME280;10652;50.306;8.570;2023-05-09T00:03:57;98266.88;;;13.95;100.00
20987;BME280;10652;50.306;8.570;2023-05-09T00:08:00;98259.81;;;13.96;100.00
20987;BME280;10652;50.306;8.570;2023-05-09T00:12:02;98262.47;;;13.96;100.00
20987;BME280;10652;50.306;8.570;2023-05-09T00:16:05;98256.31;;;13.95;100.00
20987;BME280;10652;50.306;8.570;2023-05-09T00:20:07;98247.81;;;13.90;100.00
20987;BME280;10652;50.306;8.570;2023-05-09T00:24:12;98249.69;;;13.88;100.00
20987;BME280;10652;50.306;8.570;2023-05-09T00:28:14;98242.72;;;13.87;100.00
20987;BME280;10652;50.306;8.570;2023-05-09T00:32:17;98241.00;;;13.86;100.00
20987;BME280;10652;50.306;8.570;2023-05-09T00:36:19;98247.13;;;13.87;100.00
20987;BME280;10652;50.306;8.570;2023-05-09T00:40:21;98249.69;;;13.88;100.00
20987;BME280;10652;50.306;8.570;2023-05-09T00:44:23;98240.00;;;13.89;100.00
20987;BME280;10652;50.306;8.570;2023-05-09T00:48:25;98233.47;;;13.94;100.00
20987;BME280;10652;50.306;8.570;2023-05-09T00:52:28;98221.81;;;13.98;100.00
20987;BME280;10652;50.306;8.570;2023-05-09T00:56:31;98228.72;;;14.01;100.00
20987;BME280;10652;50.306;8.570;2023-05-09T01:00:33;98217.47;;;13.97;100.00
20987;BME280;10652;50.306;8.570;2023-05-09T01:04:36;98218.47;;;13.95;100.00
20987;BME280;10652;50.306;8.570;2023-05-09T01:08:46;98208.88;;;13.94;100.00
20987;BME280;10652;50.306;8.570;2023-05-09T01:12:57;98201.78;;;13.94;100.00
20987;BME280;10652;50.306;8.570;2023-05-09T01:17:11;98205.38;;;13.93;100.00
20987;BME280;10652;50.306;8.570;2023-05-09T01:21:23;98201.91;;;13.93;100.00
20987;BME280;10652;50.306;8.570;2023-05-09T01:25:48;98196.69;;;13.91;100.00
20987;BME280;10652;50.306;8.570;2023-05-09T01:29:56;98191.59;;;13.88;100.00
20987;BME280;10652;50.306;8.570;2023-05-09T01:34:01;98189.88;;;13.87;100.00
20987;BME280;10652;50.306;8.570;2023-05-09T01:38:08;98197.03;;;13.85;100.00
20987;BME280;10652;50.306;8.570;2023-05-09T01:42:13;98194.50;;;13.84;100.00
20987;BME280;10652;50.306;8.570;2023-05-09T01:46:17;98190.81;;;13.86;100.00
20987;BME280;10652;50.306;8.570;2023-05-09T01:50:21;98183.00;;;13.85;100.00
20987;BME280;10652;50.306;8.570;2023-05-09T01:54:25;98178.66;;;13.84;100.00
20987;BME280;10652;50.306;8.570;2023-05-09T01:58:30;98176.16;;;13.81;100.00
20987;BME280;10652;50.306;8.570;2023-05-09T02:02:34;98182.22;;;13.83;100.00
20987;BME280;10652;50.306;8.570;2023-05-09T02:06:37;98172.78;;;13.79;100.00
20987;BME280;10652;50.306;8.570;2023-05-09T02:10:40;98164.00;;;13.78;100.00
20987;BME280;10652;50.306;8.570;2023-05-09T02:14:43;98169.22;;;13.80;100.00
20987;BME280;10652;50.306;8.570;2023-05-09T02:18:45;98158.72;;;13.78;100.00
20987;BME280;10652;50.306;8.570;2023-05-09T02:22:47;98163.44;;;13.73;100.00
20987;BME280;10652;50.306;8.570;2023-05-09T02:26:50;98178.53;;;13.71;100.00
20987;BME280;10652;50.306;8.570;2023-05-09T02:30:52;98167.97;;;13.71;100.00
20987;BME280;10652;50.306;8.570;2023-05-09T02:34:57;98168.63;;;13.75;100.00
20987;BME280;10652;50.306;8.570;2023-05-09T02:39:00;98157.88;;;13.78;100.00
20987;BME280;10652;50.306;8.570;2023-05-09T02:43:04;98151.94;;;13.74;100.00
20987;BME280;10652;50.306;8.570;2023-05-09T02:47:06;98152.38;;;13.67;100.00
20987;BME280;10652;50.306;8.570;2023-05-09T02:51:08;98146.00;;;13.55;100.00
20987;BME280;10652;50.306;8.570;2023-05-09T02:55:10;98136.13;;;13.43;100.00
20987;BME280;10652;50.306;8.570;2023-05-09T02:59:16;98145.31;;;13.36;100.00
20987;BME280;10652;50.306;8.570;2023-05-09T03:03:19;98146.88;;;13.24;100.00
20987;BME280;10652;50.306;8.570;2023-05-09T03:07:24;98147.47;;;13.13;100.00
20987;BME280;10652;50.306;8.570;2023-05-09T03:11:26;98143.06;;;12.98;100.00
20987;BME280;10652;50.306;8.570;2023-05-09T03:15:28;98142.72;;;12.89;100.00
20987;BME280;10652;50.306;8.570;2023-05-09T03:19:32;98154.59;;;12.80;100.00
20987;BME280;10652;50.306;8.570;2023-05-09T03:23:35;98139.13;;;12.74;100.00
20987;BME280;10652;50.306;8.570;2023-05-09T03:27:37;98131.16;;;12.58;100.00
20987;BME280;10652;50.306;8.570;2023-05-09T03:31:43;98138.28;;;12.41;100.00
20987;BME280;10652;50.306;8.570;2023-05-09T03:35:45;98133.19;;;12.38;100.00
20987;BME280;10652;50.306;8.570;2023-05-09T03:39:47;98123.25;;;12.43;100.00
20987;BME280;10652;50.306;8.570;2023-05-09T03:43:49;98124.59;;;12.50;100.00
20987;BME280;10652;50.306;8.570;2023-05-09T03:47:52;98128.88;;;12.52;100.00
20987;BME280;10652;50.306;8.570;2023-05-09T03:51:54;98122.75;;;12.52;100.00
20987;BME280;10652;50.306;8.570;2023-05-09T03:55:56;98115.16;;;12.46;100.00
20987;BME280;10652;50.306;8.570;2023-05-09T04:00:00;98117.50;;;12.52;100.00
20987;BME280;10652;50.306;8.570;2023-05-09T04:04:02;98110.69;;;12.48;100.00
20987;BME280;10652;50.306;8.570;2023-05-09T04:08:08;98112.72;;;12.43;100.00
20987;BME280;10652;50.306;8.570;2023-05-09T04:12:10;98104.63;;;12.46;100.00
20987;BME280;10652;50.306;8.570;2023-05-09T04:16:12;98109.25;;;12.58;100.00
20987;BME280;10652;50.306;8.570;2023-05-09T04:20:14;98109.50;;;12.69;100.00
20987;BME280;10652;50.306;8.570;2023-05-09T04:24:17;98100.78;;;12.84;100.00
20987;BME280;10652;50.306;8.570;2023-05-09T04:28:22;98108.84;;;13.12;100.00
20987;BME280;10652;50.306;8.570;2023-05-09T04:32:24;98097.03;;;13.65;100.00
20987;BME280;10652;50.306;8.570;2023-05-09T04:36:27;98104.41;;;14.46;100.00
20987;BME280;10652;50.306;8.570;2023-05-09T04:40:32;98102.78;;;14.86;100.00
20987;BME280;10652;50.306;8.570;2023-05-09T04:44:35;98095.56;;;15.96;100.00
20987;BME280;10652;50.306;8.570;2023-05-09T04:48:37;98100.16;;;16.19;96.41
20987;BME280;10652;50.306;8.570;2023-05-09T04:52:39;98083.72;;;16.01;93.13
20987;BME280;10652;50.306;8.570;2023-05-09T04:56:42;98073.91;;;15.64;92.42
20987;BME280;10652;50.306;8.570;2023-05-09T05:00:44;98072.25;;;15.49;93.04
20987;BME280;10652;50.306;8.570;2023-05-09T05:04:48;98060.94;;;16.86;93.44
20987;BME280;10652;50.306;8.570;2023-05-09T05:08:51;98057.13;;;19.18;82.05
20987;BME280;10652;50.306;8.570;2023-05-09T05:12:53;98054.88;;;20.80;70.75
20987;BME280;10652;50.306;8.570;2023-05-09T05:16:55;98047.94;;;22.04;62.33
20987;BME280;10652;50.306;8.570;2023-05-09T05:20:58;98050.31;;;22.26;56.73
20987;BME280;10652;50.306;8.570;2023-05-09T05:25:00;98045.13;;;21.19;58.21
20987;BME280;10652;50.306;8.570;2023-05-09T05:29:05;98047.00;;;21.47;57.88
20987;BME280;10652;50.306;8.570;2023-05-09T05:33:07;98045.59;;;19.82;59.24
20987;BME280;10652;50.306;8.570;2023-05-09T05:37:09;98048.84;;;18.45;66.24
20987;BME280;10652;50.306;8.570;2023-05-09T05:41:12;98047.53;;;20.11;68.19
20987;BME280;10652;50.306;8.570;2023-05-09T05:45:17;98033.56;;;22.98;57.18
20987;BME280;10652;50.306;8.570;2023-05-09T05:49:23;98031.41;;;24.59;50.63
20987;BME280;10652;50.306;8.570;2023-05-09T05:53:26;98038.50;;;25.93;47.71
20987;BME280;10652;50.306;8.570;2023-05-09T05:57:30;98038.56;;;26.64;44.81
20987;BME280;10652;50.306;8.570;2023-05-09T06:01:32;98024.78;;;26.59;43.65
20987;BME280;10652;50.306;8.570;2023-05-09T06:05:35;98037.34;;;26.19;43.92
20987;BME280;10652;50.306;8.570;2023-05-09T06:09:37;98035.88;;;26.64;43.47
20987;BME280;10652;50.306;8.570;2023-05-09T06:13:39;98035.28;;;26.38;43.01
20987;BME280;10652;50.306;8.570;2023-05-09T06:17:42;98030.78;;;25.65;43.94
20987;BME280;10652;50.306;8.570;2023-05-09T06:21:44;98033.28;;;25.91;43.79
20987;BME280;10652;50.306;8.570;2023-05-09T06:25:47;98025.56;;;24.12;45.98
20987;BME280;10652;50.306;8.570;2023-05-09T06:29:50;98014.34;;;22.75;49.16
20987;BME280;10652;50.306;8.570;2023-05-09T06:33:53;98020.13;;;21.77;51.95
20987;BME280;10652;50.306;8.570;2023-05-09T06:37:55;98005.28;;;20.96;54.44
20987;BME280;10652;50.306;8.570;2023-05-09T06:41:57;98008.91;;;20.46;56.54
20987;BME280;10652;50.306;8.570;2023-05-09T06:46:05;98004.66;;;20.34;57.54
20987;BME280;10652;50.306;8.570;2023-05-09T06:50:07;98003.59;;;20.15;59.99
20987;BME280;10652;50.306;8.570;2023-05-09T06:54:09;98004.38;;;19.86;60.84
20987;BME280;10652;50.306;8.570;2023-05-09T06:58:12;98000.78;;;19.55;62.20
20987;BME280;10652;50.306;8.570;2023-05-09T07:02:14;97998.63;;;19.28;64.52
20987;BME280;10652;50.306;8.570;2023-05-09T07:06:16;97990.56;;;19.07;65.78
20987;BME280;10652;50.306;8.570;2023-05-09T07:10:19;97994.47;;;18.92;66.82
20987;BME280;10652;50.306;8.570;2023-05-09T07:14:22;97985.66;;;18.92;68.26
20987;BME280;10652;50.306;8.570;2023-05-09T07:18:24;97986.31;;;19.05;67.79
20987;BME280;10652;50.306;8.570;2023-05-09T07:22:26;97979.41;;;19.13;67.48
20987;BME280;10652;50.306;8.570;2023-05-09T07:26:34;97975.03;;;19.23;67.85
20987;BME280;10652;50.306;8.570;2023-05-09T07:30:36;97967.31;;;19.20;66.96
20987;BME280;10652;50.306;8.570;2023-05-09T07:34:38;97954.84;;;19.21;68.17
20987;BME280;10652;50.306;8.570;2023-05-09T07:38:40;97949.13;;;19.25;67.87
20987;BME280;10652;50.306;8.570;2023-05-09T07:42:42;97956.50;;;19.22;67.92
20987;BME280;10652;50.306;8.570;2023-05-09T07:46:50;97950.84;;;19.15;67.88
20987;BME280;10652;50.306;8.570;2023-05-09T07:50:52;97951.97;;;19.02;68.25
20987;BME280;10652;50.306;8.570;2023-05-09T07:54:54;97941.16;;;19.03;69.20
20987;BME280;10652;50.306;8.570;2023-05-09T07:58:56;97930.09;;;18.98;68.81
20987;BME280;10652;50.306;8.570;2023-05-09T08:02:58;97935.44;;;18.87;69.15
20987;BME280;10652;50.306;8.570;2023-05-09T08:07:01;97936.97;;;19.01;69.38
20987;BME280;10652;50.306;8.570;2023-05-09T08:11:04;97931.72;;;19.10;68.79
20987;BME280;10652;50.306;8.570;2023-05-09T08:15:08;97920.97;;;19.01;68.48
20987;BME280;10652;50.306;8.570;2023-05-09T08:19:10;97922.03;;;19.09;70.14
20987;BME280;10652;50.306;8.570;2023-05-09T08:23:12;97900.94;;;19.59;68.56
20987;BME280;10652;50.306;8.570;2023-05-09T08:27:14;97901.63;;;20.02;66.17
20987;BME280;10652;50.306;8.570;2023-05-09T08:31:16;97896.56;;;20.39;64.75
20987;BME280;10652;50.306;8.570;2023-05-09T08:35:18;97896.69;;;20.38;63.80
20987;BME280;10652;50.306;8.570;2023-05-09T08:39:20;97888.78;;;20.36;63.71
20987;BME280;10652;50.306;8.570;2023-05-09T08:43:23;97892.75;;;20.42;63.76
20987;BME280;10652;50.306;8.570;2023-05-09T08:47:26;97883.03;;;20.31;63.37
20987;BME280;10652;50.306;8.570;2023-05-09T08:51:29;97877.03;;;19.99;63.77
20987;BME280;10652;50.306;8.570;2023-05-09T08:55:33;97880.59;;;19.58;65.11
20987;BME280;10652;50.306;8.570;2023-05-09T08:59:35;97878.00;;;19.05;66.66
20987;BME280;10652;50.306;8.570;2023-05-09T09:03:39;97883.56;;;18.81;69.00
20987;BME280;10652;50.306;8.570;2023-05-09T09:07:46;97871.38;;;18.68;70.30
20987;BME280;10652;50.306;8.570;2023-05-09T09:11:48;97866.13;;;18.57;71.15
20987;BME280;10652;50.306;8.570;2023-05-09T09:15:51;97863.09;;;18.50;72.28
20987;BME280;10652;50.306;8.570;2023-05-09T09:19:55;97856.72;;;18.53;72.91
20987;BME280;10652;50.306;8.570;2023-05-09T09:23:59;97855.84;;;18.52;72.35
20987;BME280;10652;50.306;8.570;2023-05-09T09:28:01;97861.09;;;18.42;73.72
20987;BME280;10652;50.306;8.570;2023-05-09T09:32:05;97855.94;;;18.30;74.17
20987;BME280;10652;50.306;8.570;2023-05-09T09:36:07;97838.50;;;18.15;74.75
20987;BME280;10652;50.306;8.570;2023-05-09T09:40:11;97850.63;;;18.08;75.31
20987;BME280;10652;50.306;8.570;2023-05-09T09:44:14;97837.22;;;17.98;76.24
20987;BME280;10652;50.306;8.570;2023-05-09T09:48:16;97832.13;;;18.06;76.76
20987;BME280;10652;50.306;8.570;2023-05-09T09:52:22;97832.72;;;18.10;77.08
20987;BME280;10652;50.306;8.570;2023-05-09T09:56:45;97830.16;;;18.19;77.22
20987;BME280;10652;50.306;8.570;2023-05-09T10:01:03;97823.78;;;18.11;77.27
20987;BME280;10652;50.306;8.570;2023-05-09T10:05:06;97819.78;;;18.05;77.75
20987;BME280;10652;50.306;8.570;2023-05-09T10:09:08;97808.34;;;18.48;76.84
20987;BME280;10652;50.306;8.570;2023-05-09T10:13:10;97809.75;;;18.83;75.38
20987;BME280;10652;50.306;8.570;2023-05-09T10:17:13;97798.91;;;18.96;73.66
20987;BME280;10652;50.306;8.570;2023-05-09T10:21:17;97797.94;;;19.39;73.38
20987;BME280;10652;50.306;8.570;2023-05-09T10:25:20;97800.47;;;19.80;70.71
20987;BME280;10652;50.306;8.570;2023-05-09T10:29:23;97789.53;;;19.83;69.35
20987;BME280;10652;50.306;8.570;2023-05-09T10:33:45;97782.34;;;19.74;69.07
20987;BME280;10652;50.306;8.570;2023-05-09T10:37:49;97770.28;;;19.70;69.68
20987;BME280;10652;50.306;8.570;2023-05-09T10:41:51;97765.59;;;19.93;69.45
20987;BME280;10652;50.306;8.570;2023-05-09T10:45:55;97760.28;;;20.22;68.32
20987;BME280;10652;50.306;8.570;2023-05-09T10:49:57;97760.44;;;20.10;66.03
20987;BME280;10652;50.306;8.570;2023-05-09T10:53:59;97755.97;;;19.81;67.33
20987;BME280;10652;50.306;8.570;2023-05-09T10:58:27;97748.81;;;19.32;69.21
20987;BME280;10652;50.306;8.570;2023-05-09T11:02:29;97742.22;;;19.05;70.93
20987;BME280;10652;50.306;8.570;2023-05-09T11:06:50;97736.13;;;19.14;72.16
20987;BME280;10652;50.306;8.570;2023-05-09T11:10:54;97726.53;;;19.33;72.58
20987;BME280;10652;50.306;8.570;2023-05-09T11:15:04;97732.09;;;19.60;71.10
20987;BME280;10652;50.306;8.570;2023-05-09T11:19:08;97722.94;;;20.02;70.60
20987;BME280;10652;50.306;8.570;2023-05-09T11:23:14;97719.31;;;20.42;69.44
20987;BME280;10652;50.306;8.570;2023-05-09T11:27:22;97723.78;;;20.32;67.40
20987;BME280;10652;50.306;8.570;2023-05-09T11:31:25;97712.00;;;20.05;67.53
20987;BME280;10652;50.306;8.570;2023-05-09T11:35:27;97696.75;;;19.67;68.49
20987;BME280;10652;50.306;8.570;2023-05-09T11:39:29;97697.91;;;19.74;69.99
20987;BME280;10652;50.306;8.570;2023-05-09T11:43:31;97688.72;;;20.07;69.07
20987;BME280;10652;50.306;8.570;2023-05-09T11:47:35;97679.72;;;20.08;67.62
20987;BME280;10652;50.306;8.570;2023-05-09T11:51:38;97677.03;;;19.89;68.42
20987;BME280;10652;50.306;8.570;2023-05-09T11:55:40;97668.44;;;19.86;68.04
20987;BME280;10652;50.306;8.570;2023-05-09T11:59:43;97669.03;;;19.89;68.01
20987;BME280;10652;50.306;8.570;2023-05-09T12:03:46;97655.09;;;19.57;67.63
20987;BME280;10652;50.306;8.570;2023-05-09T12:07:48;97652.59;;;19.15;69.70
20987;BME280;10652;50.306;8.570;2023-05-09T12:11:51;97648.75;;;18.78;71.66
20987;BME280;10652;50.306;8.570;2023-05-09T12:15:59;97648.41;;;18.62;74.44
20987;BME280;10652;50.306;8.570;2023-05-09T12:20:02;97664.63;;;18.59;78.12
20987;BME280;10652;50.306;8.570;2023-05-09T12:24:06;97656.34;;;18.52;80.15
20987;BME280;10652;50.306;8.570;2023-05-09T12:28:08;97647.78;;;18.49;82.69
20987;BME280;10652;50.306;8.570;2023-05-09T12:32:12;97638.28;;;18.56;83.84
20987;BME280;10652;50.306;8.570;2023-05-09T12:36:15;97637.31;;;18.57;84.88
20987;BME280;10652;50.306;8.570;2023-05-09T12:40:17;97630.88;;;18.59;86.00
20987;BME280;10652;50.306;8.570;2023-05-09T12:44:24;97623.66;;;18.71;86.68
20987;BME280;10652;50.306;8.570;2023-05-09T12:48:27;97611.22;;;18.81;86.10
20987;BME280;10652;50.306;8.570;2023-05-09T12:52:36;97607.94;;;18.98;87.62
20987;BME280;10652;50.306;8.570;2023-05-09T12:56:56;97605.50;;;19.16;89.08
20987;BME280;10652;50.306;8.570;2023-05-09T13:01:02;97592.22;;;19.25;87.92
20987;BME280;10652;50.306;8.570;2023-05-09T13:05:12;97584.97;;;19.56;87.18
20987;BME280;10652;50.306;8.570;2023-05-09T13:09:17;97572.19;;;19.79;84.91
20987;BME280;10652;50.306;8.570;2023-05-09T13:13:20;97573.19;;;19.88;85.04
20987;BME280;10652;50.306;8.570;2023-05-09T13:17:23;97566.03;;;19.69;84.77
20987;BME280;10652;50.306;8.570;2023-05-09T13:21:26;97556.47;;;19.38;83.75
20987;BME280;10652;50.306;8.570;2023-05-09T13:25:28;97552.66;;;19.30;83.35
20987;BME280;10652;50.306;8.570;2023-05-09T13:29:30;97539.09;;;19.43;83.49
20987;BME280;10652;50.306;8.570;2023-05-09T13:33:32;97531.50;;;19.58;84.14
20987;BME280;10652;50.306;8.570;2023-05-09T13:37:34;97518.47;;;19.74;81.24
20987;BME280;10652;50.306;8.570;2023-05-09T13:41:36;97517.19;;;19.78;79.12
20987;BME280;10652;50.306;8.570;2023-05-09T13:45:39;97509.50;;;19.75;78.40
20987;BME280;10652;50.306;8.570;2023-05-09T13:49:41;97514.97;;;19.64;78.17
20987;BME280;10652;50.306;8.570;2023-05-09T13:53:43;97508.53;;;19.38;77.71
20987;BME280;10652;50.306;8.570;2023-05-09T13:57:45;97503.69;;;19.12;79.68
20987;BME280;10652;50.306;8.570;2023-05-09T14:01:47;97501.47;;;18.98;80.88
20987;BME280;10652;50.306;8.570;2023-05-09T14:05:49;97500.34;;;19.01;82.42
20987;BME280;10652;50.306;8.570;2023-05-09T14:09:51;97493.06;;;19.03;83.67
20987;BME280;10652;50.306;8.570;2023-05-09T14:14:09;97490.81;;;19.08;83.23
20987;BME280;10652;50.306;8.570;2023-05-09T14:18:11;97473.47;;;19.13;83.89
20987;BME280;10652;50.306;8.570;2023-05-09T14:22:18;97475.59;;;19.39;84.67
20987;BME280;10652;50.306;8.570;2023-05-09T14:26:20;97470.94;;;19.41;84.90
20987;BME280;10652;50.306;8.570;2023-05-09T14:30:23;97447.97;;;19.30;83.88
20987;BME280;10652;50.306;8.570;2023-05-09T14:34:26;97450.72;;;19.09;82.69
20987;BME280;10652;50.306;8.570;2023-05-09T14:38:28;97435.03;;;19.06;84.80
20987;BME280;10652;50.306;8.570;2023-05-09T14:42:30;97426.94;;;18.98;84.00
20987;BME280;10652;50.306;8.570;2023-05-09T14:46:32;97419.63;;;18.71;84.04
20987;BME280;10652;50.306;8.570;2023-05-09T14:50:35;97420.69;;;18.50;86.38
20987;BME280;10652;50.306;8.570;2023-05-09T14:54:37;97411.28;;;18.46;87.04
20987;BME280;10652;50.306;8.570;2023-05-09T14:58:39;97405.31;;;18.53;87.48
20987;BME280;10652;50.306;8.570;2023-05-09T15:02:41;97396.72;;;18.40;85.92
20987;BME280;10652;50.306;8.570;2023-05-09T15:06:44;97402.41;;;18.26;86.50
20987;BME280;10652;50.306;8.570;2023-05-09T15:10:46;97401.28;;;18.28;87.60
20987;BME280;10652;50.306;8.570;2023-05-09T15:14:49;97405.50;;;18.31;87.84
20987;BME280;10652;50.306;8.570;2023-05-09T15:18:54;97400.56;;;18.26;89.05
20987;BME280;10652;50.306;8.570;2023-05-09T15:22:57;97392.34;;;18.29;90.00
20987;BME280;10652;50.306;8.570;2023-05-09T15:26:59;97391.50;;;18.29;92.05
20987;BME280;10652;50.306;8.570;2023-05-09T15:31:01;97381.69;;;18.29;94.53
20987;BME280;10652;50.306;8.570;2023-05-09T15:35:04;97383.13;;;18.33;94.96
20987;BME280;10652;50.306;8.570;2023-05-09T15:39:07;97380.28;;;18.25;93.21
20987;BME280;10652;50.306;8.570;2023-05-09T15:43:09;97372.81;;;18.10;93.46
20987;BME280;10652;50.306;8.570;2023-05-09T15:47:12;97361.03;;;17.93;95.26
20987;BME280;10652;50.306;8.570;2023-05-09T15:51:14;97364.16;;;17.77;95.56
20987;BME280;10652;50.306;8.570;2023-05-09T15:55:16;97355.69;;;17.63;94.88
20987;BME280;10652;50.306;8.570;2023-05-09T15:59:18;97348.09;;;17.48;95.59
20987;BME280;10652;50.306;8.570;2023-05-09T16:03:20;97346.91;;;17.41;96.01
20987;BME280;10652;50.306;8.570;2023-05-09T16:07:25;97349.09;;;17.36;96.62
20987;BME280;10652;50.306;8.570;2023-05-09T16:11:27;97347.81;;;17.31;97.90
20987;BME280;10652;50.306;8.570;2023-05-09T16:15:29;97347.06;;;17.19;98.17
20987;BME280;10652;50.306;8.570;2023-05-09T16:19:31;97342.78;;;17.07;99.23
20987;BME280;10652;50.306;8.570;2023-05-09T16:23:36;97341.03;;;16.96;99.93
20987;BME280;10652;50.306;8.570;2023-05-09T16:27:40;97328.91;;;16.83;100.00
20987;BME280;10652;50.306;8.570;2023-05-09T16:31:42;97324.28;;;16.75;100.00
20987;BME280;10652;50.306;8.570;2023-05-09T16:35:46;97319.34;;;16.71;100.00
20987;BME280;10652;50.306;8.570;2023-05-09T16:39:48;97309.59;;;16.71;100.00
20987;BME280;10652;50.306;8.570;2023-05-09T16:43:50;97302.31;;;16.73;100.00
20987;BME280;10652;50.306;8.570;2023-05-09T16:47:52;97278.56;;;16.72;100.00
20987;BME280;10652;50.306;8.570;2023-05-09T16:51:56;97275.09;;;16.71;100.00
20987;BME280;10652;50.306;8.570;2023-05-09T16:55:58;97279.88;;;16.56;100.00
20987;BME280;10652;50.306;8.570;2023-05-09T17:00:01;97264.13;;;16.44;100.00
20987;BME280;10652;50.306;8.570;2023-05-09T17:04:03;97258.47;;;16.37;100.00
20987;BME280;10652;50.306;8.570;2023-05-09T17:08:07;97259.31;;;16.38;100.00
20987;BME280;10652;50.306;8.570;2023-05-09T17:12:09;97263.78;;;16.37;100.00
20987;BME280;10652;50.306;8.570;2023-05-09T17:16:18;97275.22;;;16.38;100.00
20987;BME280;10652;50.306;8.570;2023-05-09T17:20:20;97284.72;;;16.40;100.00
20987;BME280;10652;50.306;8.570;2023-05-09T17:24:22;97293.66;;;16.39;100.00
20987;BME280;10652;50.306;8.570;2023-05-09T17:28:24;97277.78;;;16.28;100.00
20987;BME280;10652;50.306;8.570;2023-05-09T17:32:26;97257.13;;;16.11;100.00
20987;BME280;10652;50.306;8.570;2023-05-09T17:36:28;97256.69;;;15.95;100.00
20987;BME280;10652;50.306;8.570;2023-05-09T17:40:30;97275.84;;;15.87;100.00
20987;BME280;10652;50.306;8.570;2023-05-09T17:44:32;97261.06;;;15.85;100.00
20987;BME280;10652;50.306;8.570;2023-05-09T17:48:34;97260.59;;;15.57;100.00
20987;BME280;10652;50.306;8.570;2023-05-09T17:52:36;97252.91;;;15.32;100.00
20987;BME280;10652;50.306;8.570;2023-05-09T17:56:38;97255.91;;;15.27;100.00
20987;BME280;10652;50.306;8.570;2023-05-09T18:00:40;97253.41;;;15.26;100.00
20987;BME280;10652;50.306;8.570;2023-05-09T18:04:42;97244.34;;;15.17;100.00
20987;BME280;10652;50.306;8.570;2023-05-09T18:08:47;97240.53;;;15.10;100.00
20987;BME280;10652;50.306;8.570;2023-05-09T18:12:49;97233.03;;;15.04;100.00
20987;BME280;10652;50.306;8.570;2023-05-09T18:16:51;97237.03;;;15.10;100.00
20987;BME280;10652;50.306;8.570;2023-05-09T18:20:54;97235.09;;;15.23;100.00
20987;BME280;10652;50.306;8.570;2023-05-09T18:24:57;97241.84;;;15.38;100.00
20987;BME280;10652;50.306;8.570;2023-05-09T18:29:00;97252.69;;;15.35;100.00
20987;BME280;10652;50.306;8.570;2023-05-09T18:33:02;97254.09;;;15.28;100.00
20987;BME280;10652;50.306;8.570;2023-05-09T18:37:05;97282.59;;;15.02;100.00
20987;BME280;10652;50.306;8.570;2023-05-09T18:41:09;97304.81;;;15.00;100.00
20987;BME280;10652;50.306;8.570;2023-05-09T18:45:11;97311.50;;;14.81;100.00
20987;BME280;10652;50.306;8.570;2023-05-09T18:49:14;97305.47;;;14.68;100.00
20987;BME280;10652;50.306;8.570;2023-05-09T18:53:17;97298.50;;;14.67;100.00
20987;BME280;10652;50.306;8.570;2023-05-09T18:57:19;97284.81;;;14.62;100.00
20987;BME280;10652;50.306;8.570;2023-05-09T19:01:21;97283.13;;;14.61;100.00
20987;BME280;10652;50.306;8.570;2023-05-09T19:05:25;97282.16;;;14.62;100.00
20987;BME280;10652;50.306;8.570;2023-05-09T19:09:28;97285.16;;;14.69;100.00
20987;BME280;10652;50.306;8.570;2023-05-09T19:13:31;97279.38;;;14.64;100.00
20987;BME280;10652;50.306;8.570;2023-05-09T19:17:37;97276.88;;;14.62;100.00
20987;BME280;10652;50.306;8.570;2023-05-09T19:21:40;97269.53;;;14.66;100.00
20987;BME280;10652;50.306;8.570;2023-05-09T19:25:42;97260.28;;;14.60;100.00
20987;BME280;10652;50.306;8.570;2023-05-09T19:29:44;97263.66;;;14.62;100.00
20987;BME280;10652;50.306;8.570;2023-05-09T19:33:49;97260.28;;;14.60;100.00
20987;BME280;10652;50.306;8.570;2023-05-09T19:37:51;97266.66;;;14.58;100.00
20987;BME280;10652;50.306;8.570;2023-05-09T19:41:53;97257.19;;;14.54;100.00
20987;BME280;10652;50.306;8.570;2023-05-09T19:45:55;97257.53;;;14.49;100.00
20987;BME280;10652;50.306;8.570;2023-05-09T19:49:58;97250.63;;;14.24;100.00
20987;BME280;10652;50.306;8.570;2023-05-09T19:54:00;97253.44;;;14.10;100.00
20987;BME280;10652;50.306;8.570;2023-05-09T19:58:02;97253.72;;;14.18;100.00
20987;BME280;10652;50.306;8.570;2023-05-09T20:02:04;97253.88;;;14.28;100.00
20987;BME280;10652;50.306;8.570;2023-05-09T20:06:07;97255.34;;;14.32;100.00
20987;BME280;10652;50.306;8.570;2023-05-09T20:10:10;97253.53;;;14.32;100.00
20987;BME280;10652;50.306;8.570;2023-05-09T20:14:15;97248.50;;;14.29;100.00
20987;BME280;10652;50.306;8.570;2023-05-09T20:18:17;97249.44;;;14.28;100.00
20987;BME280;10652;50.306;8.570;2023-05-09T20:22:19;97254.63;;;14.30;100.00
20987;BME280;10652;50.306;8.570;2023-05-09T20:26:21;97262.06;;;14.36;100.00
20987;BME280;10652;50.306;8.570;2023-05-09T20:30:26;97252.00;;;14.41;100.00
20987;BME280;10652;50.306;8.570;2023-05-09T20:34:28;97245.00;;;14.29;100.00
20987;BME280;10652;50.306;8.570;2023-05-09T20:38:30;97238.47;;;14.22;100.00
20987;BME280;10652;50.306;8.570;2023-05-09T20:42:32;97229.56;;;14.12;100.00
20987;BME280;10652;50.306;8.570;2023-05-09T20:46:34;97226.94;;;14.12;100.00
20987;BME280;10652;50.306;8.570;2023-05-09T20:50:36;97228.59;;;14.13;100.00
20987;BME280;10652;50.306;8.570;2023-05-09T20:54:38;97225.84;;;14.14;100.00
20987;BME280;10652;50.306;8.570;2023-05-09T20:58:40;97223.44;;;14.11;100.00
20987;BME280;10652;50.306;8.570;2023-05-09T21:02:42;97224.28;;;14.12;100.00
20987;BME280;10652;50.306;8.570;2023-05-09T21:06:45;97222.72;;;14.09;100.00
20987;BME280;10652;50.306;8.570;2023-05-09T21:10:49;97216.81;;;14.06;100.00
20987;BME280;10652;50.306;8.570;2023-05-09T21:14:52;97215.88;;;14.07;100.00
20987;BME280;10652;50.306;8.570;2023-05-09T21:18:54;97205.31;;;14.07;100.00
20987;BME280;10652;50.306;8.570;2023-05-09T21:22:56;97203.63;;;14.06;100.00